Time;durP1;ratioP1;P1;durP2;ratioP2;P2;SDS_P1;SDS_P2;PMS_P1;PMS_P2;Temp;Humidity;BMP_temperature;BMP_pressure;BME280_temperature;BME280_humidity;BME280_pressure;Samples;Min_cycle;Max_cycle;Signal;HPM_P1;HPM_P2
2023/05/25 00:01:09;;;;;;;4.53;3.33;;;19.80;54.40;20.50;101607.00;;;;5016692;28;20249;-53
2023/05/25 00:03:34;;;;;;;4.20;3.37;;;19.90;54.50;20.50;101553.00;;;;5013020;28;20265;-53
2023/05/25 00:06:00;;;;;;;3.70;3.20;;;19.80;54.40;20.50;101605.00;;;;5011066;28;20213;-54
2023/05/25 00:08:27;;;;;;;3.43;3.13;;;19.80;54.40;20.50;101604.00;;;;5010222;28;20204;-51
2023/05/25 00:10:52;;;;;;;4.43;3.10;;;19.80;54.40;20.40;101615.00;;;;5009950;28;20279;-52
2023/05/25 00:13:18;;;;;;;3.80;3.00;;;19.80;55.00;20.40;101628.00;;;;5009821;28;20199;-51
2023/05/25 00:15:44;;;;;;;4.57;3.10;;;19.80;54.40;20.40;101612.00;;;;4992296;28;20263;-52
2023/05/25 00:18:10;;;;;;;4.40;3.00;;;19.80;54.40;20.40;101618.00;;;;5009632;28;20222;-50
2023/05/25 00:20:36;;;;;;;4.10;3.00;;;19.80;54.40;20.40;101618.00;;;;5009704;28;20662;-51
2023/05/25 00:23:02;;;;;;;3.73;2.77;;;19.70;54.30;20.40;101621.00;;;;5009549;28;20187;-52
2023/05/25 00:25:28;;;;;;;4.67;3.17;;;19.70;54.30;20.30;101625.00;;;;5009340;28;20196;-52
2023/05/25 00:27:54;;;;;;;4.03;2.90;;;19.70;54.40;20.30;101613.00;;;;5009158;28;20204;-52
2023/05/25 00:30:19;;;;;;;4.73;3.30;;;19.70;54.40;20.30;101615.00;;;;5009643;28;20271;-52
2023/05/25 00:32:46;;;;;;;4.27;3.20;;;19.70;54.40;20.30;101617.00;;;;5009652;28;20653;-52
2023/05/25 00:35:12;;;;;;;4.27;3.20;;;19.60;54.40;20.30;101617.00;;;;5009336;28;20255;-53
2023/05/25 00:37:37;;;;;;;4.47;3.30;;;19.60;54.40;20.20;101607.00;;;;5010697;28;20262;-51
2023/05/25 00:40:10;;;;;;;3.57;2.90;;;19.60;54.50;20.20;101621.00;;;;5009860;28;20641;-51
2023/05/25 00:42:37;;;;;;;3.63;3.07;;;19.60;54.40;20.20;101559.00;;;;5008468;28;20194;-50
2023/05/25 00:45:04;;;;;;;4.00;3.10;;;19.60;54.30;20.20;101616.00;;;;5007747;28;20718;-53
2023/05/25 00:47:30;;;;;;;4.30;3.00;;;19.60;54.40;20.20;101628.00;;;;5008437;28;20571;-51
2023/05/25 00:49:56;;;;;;;3.70;3.03;;;19.50;54.30;19.80;101609.00;;;;5007880;28;20228;-51
2023/05/25 00:52:22;;;;;;;3.87;3.00;;;19.50;54.40;20.10;101613.00;;;;5007681;28;20266;-51
2023/05/25 00:54:50;;;;;;;4.53;3.20;;;19.50;54.40;20.10;101598.00;;;;5008713;28;20208;-52
2023/05/25 00:57:16;;;;;;;5.30;3.87;;;19.50;54.40;20.10;101607.00;;;;4991372;28;20200;-52
2023/05/25 00:59:45;;;;;;;4.53;3.10;;;19.50;54.40;20.10;101614.00;;;;4974886;28;20560;-51
2023/05/25 01:02:14;;;;;;;3.47;3.03;;;19.50;54.50;20.10;101599.00;;;;5008673;28;20195;-50
2023/05/25 01:04:44;;;;;;;3.63;2.93;;;19.50;54.50;20.10;101606.00;;;;5007479;28;20208;-52
2023/05/25 01:07:11;;;;;;;3.67;3.17;;;19.50;54.50;20.10;101609.00;;;;4975616;28;20249;-54
2023/05/25 01:10:35;;;;;;;3.70;3.00;;;19.50;54.60;20.10;101542.00;;;;5009075;28;20181;-51
2023/05/25 01:13:01;;;;;;;3.73;3.13;;;19.50;54.60;20.10;101597.00;;;;5008815;28;20190;-53
2023/05/25 01:15:31;;;;;;;3.97;3.27;;;19.50;54.50;20.10;101617.00;;;;5008625;28;20265;-51
2023/05/25 01:17:58;;;;;;;3.83;2.90;;;19.50;54.50;20.10;101608.00;;;;5007206;28;20195;-51
2023/05/25 01:20:28;;;;;;;3.60;3.10;;;19.50;54.40;20.10;101617.00;;;;5008571;28;20208;-52
2023/05/25 01:22:59;;;;;;;3.80;3.10;;;19.50;54.40;20.10;101608.00;;;;5008460;28;20224;-51
2023/05/25 01:25:33;;;;;;;3.87;3.17;;;19.50;54.30;20.00;101607.00;;;;4991440;28;20253;-50
2023/05/25 01:28:14;;;;;;;4.23;2.90;;;19.50;54.30;20.00;101618.00;;;;4991804;28;20209;-50
2023/05/25 01:30:41;;;;;;;3.80;3.00;;;19.50;54.30;20.00;101613.00;;;;5007401;28;20187;-51
2023/05/25 01:33:06;;;;;;;3.67;3.07;;;19.40;54.20;20.00;101618.00;;;;4975079;28;20185;-53
2023/05/25 01:35:32;;;;;;;4.67;2.87;;;19.40;54.20;20.00;101615.00;;;;4990752;28;20787;-51
2023/05/25 01:37:58;;;;;;;5.73;2.90;;;19.40;54.20;20.00;101617.00;;;;4974693;28;20219;-52
2023/05/25 01:40:24;;;;;;;3.30;2.97;;;19.40;54.90;19.90;101622.00;;;;4990785;28;20701;-50
2023/05/25 01:42:49;;;;;;;4.03;3.00;;;19.40;54.20;19.90;101620.00;;;;5008438;28;20183;-50
2023/05/25 01:45:15;;;;;;;4.33;3.40;;;19.40;54.20;19.90;101620.00;;;;5008255;28;20249;-52
2023/05/25 01:48:21;;;;;;;4.37;3.23;;;19.30;54.10;19.90;101621.00;;;;5006881;28;20196;-51
2023/05/25 01:51:20;;;;;;;3.47;2.90;;;19.40;54.20;19.90;101623.00;;;;5007237;28;20693;-52
2023/05/25 01:54:10;;;;;;;3.53;3.10;;;19.30;54.20;19.90;101622.00;;;;5008758;28;20180;-50
2023/05/25 01:56:35;;;;;;;3.40;3.10;;;19.30;54.20;19.80;101635.00;;;;4993843;28;20675;-51
2023/05/25 01:59:01;;;;;;;4.27;3.13;;;19.30;54.10;19.80;101622.00;;;;4993922;28;20207;-51
2023/05/25 02:01:27;;;;;;;3.93;3.10;;;19.30;54.10;19.80;101591.00;;;;5011065;28;20217;-50
2023/05/25 02:03:53;;;;;;;3.93;3.07;;;19.20;54.00;19.80;101624.00;;;;4994883;28;20653;-52
2023/05/25 02:06:19;;;;;;;4.10;3.17;;;19.20;54.00;19.80;101622.00;;;;5012320;28;20167;-52
2023/05/25 02:08:44;;;;;;;3.37;3.07;;;19.20;54.00;19.70;101621.00;;;;5010620;28;20213;-52
2023/05/25 02:11:12;;;;;;;3.30;3.00;;;19.20;54.00;19.70;101619.00;;;;5011850;28;20190;-51
2023/05/25 02:13:38;;;;;;;4.40;3.20;;;19.20;54.00;19.70;101622.00;;;;5011996;28;20180;-49
2023/05/25 02:16:04;;;;;;;3.30;2.90;;;19.10;54.00;19.60;101622.00;;;;5012073;28;20198;-50
2023/05/25 02:18:30;;;;;;;4.13;3.23;;;19.20;54.00;19.60;101530.00;;;;5012768;28;20218;-51
2023/05/25 02:20:56;;;;;;;3.30;3.00;;;19.20;53.90;19.60;101605.00;;;;5015850;28;20282;-51
2023/05/25 02:23:22;;;;;;;4.00;3.10;;;19.10;54.00;19.60;101620.00;;;;5012890;28;20179;-52
2023/05/25 02:25:48;;;;;;;3.50;3.20;;;19.10;53.90;19.60;101606.00;;;;5011692;28;20172;-51
2023/05/25 02:28:14;;;;;;;3.30;3.00;;;19.10;54.00;19.60;101612.00;;;;5011797;28;20207;-53
2023/05/25 02:30:40;;;;;;;3.60;3.00;;;19.10;54.00;19.60;101613.00;;;;5011557;28;20549;-49
2023/05/25 02:33:05;;;;;;;3.33;2.80;;;19.10;54.00;19.50;101617.00;;;;5011420;28;20188;-50
2023/05/25 02:35:31;;;;;;;3.23;2.87;;;19.10;54.00;19.50;101620.00;;;;5005689;28;20187;-52
2023/05/25 02:37:57;;;;;;;3.30;3.00;;;19.10;54.00;19.50;101621.00;;;;5011172;28;20820;-51
2023/05/25 02:40:23;;;;;;;2.97;2.77;;;19.00;53.90;19.50;101609.00;;;;5011295;28;20204;-51
2023/05/25 02:42:49;;;;;;;3.20;2.60;;;19.00;54.00;19.50;101608.00;;;;5010031;28;20202;-55
2023/05/25 02:45:14;;;;;;;3.90;2.83;;;19.00;54.00;19.50;101612.00;;;;5011384;28;20263;-51
2023/05/25 02:47:40;;;;;;;3.10;2.80;;;19.10;54.10;19.50;101614.00;;;;5011480;28;20569;-51
2023/05/25 02:50:06;;;;;;;3.57;3.00;;;19.00;54.10;19.50;101547.00;;;;5011269;28;20214;-50
2023/05/25 02:52:32;;;;;;;3.57;2.80;;;19.00;54.10;19.40;101612.00;;;;5011472;28;20626;-50
2023/05/25 02:54:58;;;;;;;3.93;3.00;;;18.90;54.10;19.40;101615.00;;;;5011038;28;20175;-50
2023/05/25 02:57:23;;;;;;;3.40;3.00;;;18.90;54.00;19.40;101629.00;;;;5011152;28;20206;-50
2023/05/25 02:59:50;;;;;;;3.57;2.80;;;18.90;54.10;19.30;101630.00;;;;5010931;28;20258;-52
2023/05/25 03:02:17;;;;;;;3.17;2.87;;;18.90;54.00;19.30;101626.00;;;;5010943;28;20245;-52
2023/05/25 03:04:48;;;;;;;3.87;2.93;;;18.90;54.00;19.30;101632.00;;;;5010909;28;20229;-52
2023/05/25 03:07:14;;;;;;;3.73;3.20;;;18.90;54.00;19.30;101642.00;;;;5011034;28;20195;-52
2023/05/25 03:09:40;;;;;;;3.43;3.10;;;18.90;54.00;19.30;101632.00;;;;4992401;28;20180;-51
2023/05/25 03:12:06;;;;;;;4.13;3.20;;;18.80;53.90;19.30;101635.00;;;;5010845;28;20197;-51
2023/05/25 03:14:31;;;;;;;3.30;3.00;;;18.80;53.90;19.30;101643.00;;;;5010865;28;20176;-52
2023/05/25 03:16:57;;;;;;;3.33;3.03;;;18.80;53.90;19.20;101638.00;;;;5010850;28;20179;-52
2023/05/25 03:19:23;;;;;;;3.80;3.40;;;18.80;53.90;19.20;101648.00;;;;5010962;28;20179;-50
2023/05/25 03:21:48;;;;;;;3.60;3.00;;;18.80;53.90;19.20;101644.00;;;;5018973;28;20192;-53
2023/05/25 03:24:14;;;;;;;3.10;2.80;;;18.80;53.90;19.20;101643.00;;;;5010812;28;20203;-50
2023/05/25 03:26:40;;;;;;;3.80;3.10;;;18.80;54.00;19.20;101647.00;;;;5010709;28;20203;-50
2023/05/25 03:29:06;;;;;;;3.90;2.77;;;18.70;53.90;19.20;101652.00;;;;5010580;28;20194;-52
2023/05/25 03:31:32;;;;;;;3.23;2.90;;;18.70;54.20;19.20;101649.00;;;;5010576;28;20179;-52
2023/05/25 03:33:57;;;;;;;3.33;2.93;;;18.80;54.30;19.20;101651.00;;;;5010310;28;20294;-51
2023/05/25 03:36:26;;;;;;;3.27;2.70;;;18.80;54.10;19.00;101650.00;;;;5005846;28;20278;-51
2023/05/25 03:38:53;;;;;;;3.23;2.93;;;18.80;54.10;19.20;101652.00;;;;5008801;28;20231;-52
2023/05/25 03:41:19;;;;;;;3.27;2.97;;;18.70;54.00;19.20;101653.00;;;;5010555;28;20226;-50
2023/05/25 03:43:44;;;;;;;3.43;3.00;;;18.80;54.10;19.20;101651.00;;;;5010411;28;20266;-49
2023/05/25 03:46:10;;;;;;;4.37;3.00;;;18.80;54.20;19.20;101658.00;;;;5009075;28;20585;-50
2023/05/25 03:48:36;;;;;;;3.67;2.90;;;18.70;54.20;19.20;101666.00;;;;5010100;28;20198;-52
2023/05/25 03:51:02;;;;;;;3.57;2.67;;;18.70;54.20;19.20;101660.00;;;;5005978;28;20183;-52
2023/05/25 03:53:28;;;;;;;3.27;2.90;;;18.70;54.30;19.20;101671.00;;;;5004804;28;20779;-52
2023/05/25 03:55:54;;;;;;;4.63;2.97;;;18.70;54.30;19.20;101663.00;;;;5011385;28;20266;-52
2023/05/25 03:58:20;;;;;;;4.27;2.80;;;18.70;55.00;19.20;101675.00;;;;5010688;28;20202;-50
2023/05/25 04:00:48;;;;;;;3.77;3.00;;;18.70;54.40;19.20;101672.00;;;;5011197;28;20249;-50
2023/05/25 04:03:14;;;;;;;3.80;2.90;;;18.60;54.30;19.20;101662.00;;;;5010652;28;20217;-49
2023/05/25 04:05:40;;;;;;;5.07;3.00;;;18.60;54.30;19.20;101672.00;;;;5010526;28;20818;-49
2023/05/25 04:08:07;;;;;;;6.80;3.13;;;18.60;54.30;19.20;101670.00;;;;5009362;28;20211;-51
2023/05/25 04:10:33;;;;;;;3.23;2.63;;;18.60;54.40;19.20;101661.00;;;;5011234;28;20207;-50
2023/05/25 04:12:58;;;;;;;6.00;3.00;;;18.60;54.40;19.20;101681.00;;;;5010671;28;20179;-52
2023/05/25 04:15:24;;;;;;;4.93;2.90;;;18.60;54.50;19.20;101682.00;;;;5010111;28;20207;-49
2023/05/25 04:17:50;;;;;;;5.33;3.03;;;18.60;54.50;19.10;101672.00;;;;5009812;28;20199;-51
2023/05/25 04:20:16;;;;;;;4.07;3.00;;;18.60;54.50;19.10;101643.00;;;;5010493;28;20206;-49
2023/05/25 04:22:43;;;;;;;4.30;2.73;;;18.60;54.50;19.10;101686.00;;;;5009595;28;20262;-51
2023/05/25 04:25:09;;;;;;;6.03;3.03;;;18.50;54.50;19.10;101687.00;;;;5010093;28;20184;-49
2023/05/25 04:27:35;;;;;;;5.43;3.00;;;18.50;54.50;19.10;101679.00;;;;5009160;28;20300;-50
2023/05/25 04:30:02;;;;;;;10.17;3.07;;;18.50;54.60;19.10;101688.00;;;;5010682;28;20190;-50
2023/05/25 04:32:31;;;;;;;6.80;3.20;;;18.50;54.50;19.10;101686.00;;;;5010442;28;20174;-50
2023/05/25 04:34:57;;;;;;;10.17;3.27;;;18.50;54.60;19.10;101687.00;;;;5010062;28;20183;-49
2023/05/25 04:37:26;;;;;;;8.03;3.20;;;18.50;54.50;19.00;101692.00;;;;5010642;28;20261;-50
2023/05/25 04:39:52;;;;;;;7.27;3.20;;;18.50;54.50;19.00;101680.00;;;;5015194;28;20207;-50
2023/05/25 04:42:18;;;;;;;6.57;3.50;;;18.50;54.70;19.00;101706.00;;;;5009695;28;20622;-50
2023/05/25 04:44:44;;;;;;;5.87;2.93;;;18.50;54.70;19.00;101691.00;;;;5009737;28;20167;-50
2023/05/25 04:47:11;;;;;;;5.37;3.13;;;18.40;54.70;19.00;101698.00;;;;5009533;28;20187;-50
2023/05/25 04:49:37;;;;;;;7.00;3.23;;;18.50;54.80;19.00;101697.00;;;;5009932;28;20274;-50
2023/05/25 04:52:03;;;;;;;6.37;3.10;;;18.40;54.70;19.00;101699.00;;;;5008658;28;20314;-51
2023/05/25 04:54:28;;;;;;;6.20;3.27;;;18.40;54.70;19.00;101706.00;;;;5009577;28;20179;-49
2023/05/25 04:56:54;;;;;;;5.00;3.00;;;18.40;54.70;19.00;101711.00;;;;5008026;28;20172;-50
2023/05/25 04:59:20;;;;;;;6.90;3.13;;;18.40;54.70;19.00;101712.00;;;;5005956;28;20180;-50
2023/05/25 05:01:46;;;;;;;6.57;3.23;;;18.40;54.70;19.00;101708.00;;;;5009206;28;20195;-54
2023/05/25 05:04:12;;;;;;;6.67;3.30;;;18.40;54.70;19.00;101706.00;;;;5012463;28;20179;-50
2023/05/25 05:06:38;;;;;;;6.33;3.27;;;18.40;54.80;19.00;101706.00;;;;5008734;28;20193;-52
2023/05/25 05:09:03;;;;;;;6.33;3.17;;;18.30;54.80;18.90;101711.00;;;;5008644;28;20238;-52
2023/05/25 05:11:29;;;;;;;5.37;3.20;;;18.40;54.80;18.90;101714.00;;;;5009743;28;20203;-52
2023/05/25 05:13:55;;;;;;;6.63;3.20;;;18.30;54.80;18.90;101722.00;;;;5008218;28;20315;-51
2023/05/25 05:16:21;;;;;;;4.50;2.87;;;18.40;54.90;18.90;101721.00;;;;5009863;28;20183;-50
2023/05/25 05:18:47;;;;;;;4.87;2.90;;;18.30;54.90;18.90;101746.00;;;;5009231;28;20211;-50
2023/05/25 05:21:13;;;;;;;4.23;3.00;;;18.30;54.90;18.90;101725.00;;;;5009503;28;20219;-50
2023/05/25 05:23:38;;;;;;;5.57;3.10;;;18.30;55.00;18.90;101729.00;;;;5009358;28;20857;-50
2023/05/25 05:26:06;;;;;;;6.13;3.07;;;18.30;55.00;18.90;101740.00;;;;5009152;28;20224;-52
2023/05/25 05:28:31;;;;;;;5.60;3.07;;;18.30;55.10;18.90;101733.00;;;;5009023;28;20730;-52
2023/05/25 05:30:57;;;;;;;6.60;3.20;;;18.20;55.10;18.90;101738.00;;;;5009491;28;20267;-50
2023/05/25 05:33:23;;;;;;;3.67;2.80;;;18.20;55.00;18.90;101738.00;;;;5008614;28;20698;-50
2023/05/25 05:35:52;;;;;;;5.87;2.87;;;18.20;55.00;18.80;101734.00;;;;5009399;28;20669;-54
2023/05/25 05:38:18;;;;;;;3.80;2.73;;;18.20;55.10;18.80;101740.00;;;;5008971;28;20810;-50
2023/05/25 05:40:44;;;;;;;4.23;3.23;;;18.20;55.20;18.80;101751.00;;;;5009350;28;20218;-50
2023/05/25 05:43:11;;;;;;;4.73;2.90;;;18.20;55.10;18.80;101746.00;;;;5009145;28;20174;-50
2023/05/25 05:45:36;;;;;;;4.73;2.80;;;18.20;55.20;18.80;101738.00;;;;5009052;28;20258;-49
2023/05/25 05:48:08;;;;;;;4.03;2.77;;;18.20;55.20;18.80;101740.00;;;;5008795;28;20853;-52
2023/05/25 05:50:37;;;;;;;6.43;3.00;;;18.20;55.30;18.80;101746.00;;;;5008897;28;20276;-51
2023/05/25 05:53:03;;;;;;;3.40;2.67;;;18.20;55.20;18.80;101759.00;;;;5008592;28;20208;-52
2023/05/25 05:55:29;;;;;;;3.50;2.63;;;18.10;55.10;18.70;101746.00;;;;5009159;28;20552;-51
2023/05/25 05:57:54;;;;;;;4.80;2.70;;;18.10;55.10;18.70;101753.00;;;;5008938;28;20198;-51
2023/05/25 06:00:20;;;;;;;4.47;2.87;;;18.10;55.10;18.70;101750.00;;;;5007720;28;20686;-52
2023/05/25 06:02:46;;;;;;;3.43;2.90;;;18.10;55.20;18.70;101755.00;;;;5008765;28;20270;-53
2023/05/25 06:05:12;;;;;;;3.37;2.80;;;18.10;55.20;18.70;101756.00;;;;5009836;28;20210;-51
2023/05/25 06:07:38;;;;;;;3.03;2.47;;;18.10;55.30;18.70;101756.00;;;;5007609;28;20210;-51
2023/05/25 06:10:05;;;;;;;3.43;2.77;;;18.10;55.20;18.70;101764.00;;;;5009200;28;20210;-51
2023/05/25 06:12:30;;;;;;;4.23;2.80;;;18.10;55.20;18.70;101754.00;;;;5009388;28;20596;-52
2023/05/25 06:14:56;;;;;;;3.83;2.70;;;18.10;55.30;18.70;101758.00;;;;5008852;28;20206;-50
2023/05/25 06:17:24;;;;;;;3.93;2.53;;;18.10;55.30;18.70;101762.00;;;;5008185;28;20252;-51
2023/05/25 06:19:50;;;;;;;3.03;2.60;;;18.00;55.50;18.60;101767.00;;;;5008843;28;20195;-52
2023/05/25 06:22:16;;;;;;;3.73;2.67;;;18.10;55.60;18.60;101767.00;;;;5009441;28;20171;-51
2023/05/25 06:24:42;;;;;;;3.47;2.70;;;18.00;55.50;18.60;101774.00;;;;5008934;28;20184;-51
2023/05/25 06:27:07;;;;;;;3.90;2.70;;;18.10;55.60;18.60;101766.00;;;;5008545;28;20295;-51
2023/05/25 06:29:33;;;;;;;3.73;2.70;;;18.10;55.70;18.60;101774.00;;;;5010129;28;20333;-52
2023/05/25 06:31:59;;;;;;;3.73;2.70;;;18.00;55.70;18.60;101772.00;;;;5009213;28;20198;-51
2023/05/25 06:34:25;;;;;;;4.10;2.67;;;18.00;55.80;18.60;101766.00;;;;5008502;28;20167;-50
2023/05/25 06:36:51;;;;;;;3.53;2.50;;;18.00;55.80;18.60;101764.00;;;;5008251;28;20649;-53
2023/05/25 06:39:17;;;;;;;4.10;2.70;;;18.00;55.90;18.60;101774.00;;;;5008077;28;20201;-53
2023/05/25 06:41:42;;;;;;;2.77;2.57;;;18.00;55.80;18.60;101779.00;;;;5009183;28;20207;-54
2023/05/25 06:44:08;;;;;;;3.20;2.60;;;18.00;56.00;18.60;101776.00;;;;5008979;28;20183;-51
2023/05/25 06:46:35;;;;;;;4.10;2.70;;;18.00;56.00;18.60;101789.00;;;;5012200;28;20531;-51
2023/05/25 06:49:01;;;;;;;4.07;2.70;;;18.00;56.00;18.60;101773.00;;;;5012160;28;20714;-53
2023/05/25 06:51:26;;;;;;;3.80;2.60;;;18.00;56.00;18.50;101781.00;;;;5011766;28;20176;-50
2023/05/25 06:53:55;;;;;;;3.17;2.47;;;18.00;56.00;18.60;101781.00;;;;5011996;28;20186;-52
2023/05/25 06:56:21;;;;;;;4.93;2.60;;;18.00;56.10;18.60;101784.00;;;;5013788;28;20243;-52
2023/05/25 06:58:48;;;;;;;2.70;2.43;;;18.00;56.10;18.50;101789.00;;;;5015541;28;20681;-50
2023/05/25 07:01:14;;;;;;;3.13;2.70;;;17.90;56.10;18.50;101779.00;;;;5011933;28;20252;-52
2023/05/25 07:03:40;;;;;;;3.27;2.60;;;18.00;56.30;18.50;101781.00;;;;5011746;28;20627;-51
2023/05/25 07:06:06;;;;;;;2.50;2.30;;;18.00;56.30;18.50;101791.00;;;;5011513;28;20735;-52
2023/05/25 07:08:32;;;;;;;2.97;2.63;;;18.00;56.40;18.50;101790.00;;;;5010533;28;20720;-51
2023/05/25 07:10:57;;;;;;;2.63;2.40;;;18.00;56.40;18.50;101794.00;;;;5012198;28;20182;-50
2023/05/25 07:13:23;;;;;;;2.50;2.30;;;17.90;56.40;18.50;101785.00;;;;5011658;28;20193;-52
2023/05/25 07:15:49;;;;;;;2.57;2.37;;;18.00;56.50;18.50;101795.00;;;;5011974;28;20532;-50
2023/05/25 07:18:15;;;;;;;3.77;2.70;;;18.00;56.50;18.50;101789.00;;;;5011610;28;20206;-49
2023/05/25 07:20:40;;;;;;;3.50;2.40;;;18.00;56.60;18.50;101800.00;;;;5011692;28;20278;-51
2023/05/25 07:23:10;;;;;;;2.80;2.60;;;18.00;56.70;18.50;101798.00;;;;5011949;28;20178;-50
2023/05/25 07:25:39;;;;;;;3.10;2.63;;;17.90;56.60;18.50;101800.00;;;;5011446;28;20190;-49
2023/05/25 07:28:05;;;;;;;2.97;2.67;;;18.00;56.70;18.50;101806.00;;;;5009813;28;20194;-50
2023/05/25 07:30:30;;;;;;;2.83;2.30;;;18.00;56.80;18.50;101802.00;;;;5006637;28;20646;-49
2023/05/25 07:32:57;;;;;;;2.87;2.30;;;18.00;56.80;18.50;101804.00;;;;5011755;28;20188;-51
2023/05/25 07:35:23;;;;;;;3.83;2.70;;;17.90;57.10;18.50;101809.00;;;;5010820;28;20185;-51
2023/05/25 07:37:56;;;;;;;4.10;2.53;;;17.90;57.10;18.50;101808.00;;;;5016085;28;20202;-52
2023/05/25 07:40:22;;;;;;;7.13;3.57;;;17.90;57.30;18.50;101814.00;;;;5010897;28;20208;-49
2023/05/25 07:42:48;;;;;;;7.40;3.33;;;17.90;58.80;18.60;101801.00;;;;5010860;28;20178;-50
2023/05/25 07:45:14;;;;;;;7.53;3.33;;;17.90;58.50;18.60;101797.00;;;;5008139;28;20584;-53
2023/05/25 07:47:40;;;;;;;6.87;3.10;;;17.90;58.90;18.60;101800.00;;;;5009282;28;20195;-50
2023/05/25 07:50:06;;;;;;;11.30;3.50;;;18.00;59.30;18.50;101725.00;;;;5016076;28;20661;-51
2023/05/25 07:52:32;;;;;;;8.03;3.20;;;18.00;59.60;18.60;101806.00;;;;5011632;28;20204;-51
2023/05/25 07:54:58;;;;;;;11.63;3.80;;;17.90;59.20;18.60;101807.00;;;;5010698;28;20928;-51
2023/05/25 07:57:24;;;;;;;8.60;3.47;;;18.00;59.30;18.60;101809.00;;;;5010252;28;20203;-50
2023/05/25 07:59:49;;;;;;;8.60;3.20;;;17.90;59.20;18.60;101815.00;;;;5010398;28;20238;-51
2023/05/25 08:02:15;;;;;;;7.93;3.07;;;17.90;59.20;18.60;101660.00;;;;5010743;28;20746;-51
2023/05/25 08:04:41;;;;;;;7.03;3.13;;;17.90;59.00;18.60;101820.00;;;;5010133;28;20659;-49
2023/05/25 08:07:07;;;;;;;7.67;3.50;;;18.00;59.00;18.60;101803.00;;;;5010858;28;20568;-52
2023/05/25 08:09:32;;;;;;;6.40;3.10;;;17.90;59.00;18.60;101808.00;;;;5009981;28;20229;-51
2023/05/25 08:11:58;;;;;;;7.30;3.07;;;18.00;59.20;18.60;101806.00;;;;5010602;28;20182;-49
2023/05/25 08:14:24;;;;;;;11.10;3.13;;;18.00;59.20;18.60;101811.00;;;;5010315;28;20180;-50
2023/05/25 08:16:50;;;;;;;4.50;2.80;;;17.90;59.00;18.60;101804.00;;;;5010010;28;20169;-50
2023/05/25 08:19:16;;;;;;;5.27;2.73;;;17.90;59.20;18.60;101815.00;;;;5009357;28;20190;-52
2023/05/25 08:21:42;;;;;;;7.57;2.90;;;17.90;59.20;18.60;101812.00;;;;5009662;28;20205;-52
2023/05/25 08:24:08;;;;;;;4.10;2.80;;;17.90;59.20;18.60;101809.00;;;;5009984;28;20171;-50
2023/05/25 08:26:35;;;;;;;6.03;2.93;;;17.90;59.20;18.60;101802.00;;;;5009198;28;20708;-51
2023/05/25 08:29:03;;;;;;;5.63;2.70;;;18.00;59.30;18.60;101803.00;;;;5010405;28;20238;-48
2023/05/25 08:31:32;;;;;;;5.23;3.27;;;17.90;59.20;18.60;101803.00;;;;5010808;28;20205;-51
2023/05/25 08:33:59;;;;;;;6.30;2.80;;;18.00;59.30;18.60;101793.00;;;;5009142;28;20193;-52
2023/05/25 08:36:26;;;;;;;5.93;2.80;;;17.90;59.20;18.60;101809.00;;;;5008568;28;20236;-50
2023/05/25 08:38:52;;;;;;;3.80;2.87;;;17.90;59.30;18.60;101807.00;;;;5010170;28;20289;-50
2023/05/25 08:41:18;;;;;;;3.60;2.97;;;18.00;59.50;18.60;101817.00;;;;5010282;28;20298;-50
2023/05/25 08:43:44;;;;;;;4.97;3.00;;;17.90;59.30;18.60;101819.00;;;;5008826;28;20266;-49
2023/05/25 08:46:10;;;;;;;4.63;2.80;;;17.90;59.30;18.60;101812.00;;;;5009881;28;20630;-49
2023/05/25 08:48:36;;;;;;;3.73;2.90;;;17.90;59.30;18.60;101816.00;;;;5008216;28;20197;-50
2023/05/25 08:51:09;;;;;;;5.50;2.83;;;17.90;59.50;18.60;101813.00;;;;5009136;28;20177;-50
2023/05/25 08:53:37;;;;;;;4.20;2.93;;;17.90;59.50;18.60;101808.00;;;;5009999;28;20733;-50
2023/05/25 08:56:18;;;;;;;4.73;2.80;;;18.00;59.60;18.60;101809.00;;;;5009658;28;20229;-52
2023/05/25 08:59:18;;;;;;;3.50;2.60;;;18.00;59.70;18.70;101808.00;;;;5008233;28;20216;-50
2023/05/25 09:01:46;;;;;;;3.53;2.47;;;17.90;59.60;18.70;101809.00;;;;5009961;28;20701;-49
2023/05/25 09:04:13;;;;;;;4.40;2.90;;;17.90;59.70;18.70;101814.00;;;;4975779;28;20240;-50
2023/05/25 09:06:39;;;;;;;3.33;2.70;;;18.00;60.00;18.70;101814.00;;;;5007895;28;20171;-50
2023/05/25 09:09:05;;;;;;;3.90;2.53;;;18.00;60.00;18.70;101815.00;;;;5009437;28;20199;-52
2023/05/25 09:11:31;;;;;;;5.50;2.70;;;18.00;60.10;18.70;101814.00;;;;5009921;28;20181;-50
2023/05/25 09:13:57;;;;;;;3.43;2.80;;;17.90;60.00;18.70;101813.00;;;;5008444;28;20542;-50
2023/05/25 09:16:22;;;;;;;3.27;2.50;;;18.00;60.10;18.70;101809.00;;;;5010340;28;20263;-52
2023/05/25 09:18:49;;;;;;;3.70;2.53;;;18.00;60.10;18.70;101815.00;;;;4975631;28;20209;-50
2023/05/25 09:21:14;;;;;;;3.57;2.60;;;18.00;60.10;18.70;101812.00;;;;5008972;28;20202;-49
2023/05/25 09:23:40;;;;;;;3.23;2.50;;;18.00;60.10;18.70;101812.00;;;;5009564;28;20481;-49
2023/05/25 09:26:06;;;;;;;3.20;2.57;;;18.00;60.10;18.80;101824.00;;;;5008401;28;20183;-49
2023/05/25 09:28:32;;;;;;;4.80;2.60;;;18.00;60.30;18.80;101820.00;;;;4991672;28;20723;-50
2023/05/25 09:30:58;;;;;;;4.07;2.73;;;18.00;60.40;18.80;101808.00;;;;5009293;28;20189;-52
2023/05/25 09:33:23;;;;;;;3.50;2.60;;;18.00;60.30;18.80;101816.00;;;;5007631;28;20201;-51
2023/05/25 09:35:50;;;;;;;2.87;2.40;;;18.00;60.50;18.80;101808.00;;;;5009382;28;20217;-51
2023/05/25 09:38:16;;;;;;;3.60;2.87;;;18.10;60.80;18.80;101813.00;;;;4975242;28;20201;-54
2023/05/25 09:40:41;;;;;;;3.87;2.60;;;18.10;60.90;18.80;101818.00;;;;5009212;28;20718;-53
2023/05/25 09:43:07;;;;;;;3.63;2.77;;;18.00;61.10;18.80;101813.00;;;;5010131;28;20177;-50
2023/05/25 09:45:34;;;;;;;7.30;2.90;;;18.10;61.60;18.90;101806.00;;;;5008746;28;20181;-51
2023/05/25 09:48:00;;;;;;;9.23;2.70;;;18.10;61.30;18.90;101807.00;;;;5004778;28;20368;-52
2023/05/25 09:50:27;;;;;;;5.80;2.80;;;18.10;61.20;18.90;101801.00;;;;4991912;28;20621;-51
2023/05/25 09:53:00;;;;;;;7.10;3.10;;;18.10;61.10;18.90;101814.00;;;;5009070;28;20183;-51
2023/05/25 09:55:29;;;;;;;4.90;2.70;;;18.10;61.40;19.00;101807.00;;;;4975852;28;20187;-53
2023/05/25 09:57:55;;;;;;;6.67;2.90;;;18.20;61.60;19.00;101806.00;;;;5006845;28;20242;-52
2023/05/25 10:00:24;;;;;;;3.33;2.53;;;18.20;61.50;19.00;101815.00;;;;5008898;28;20666;-52
2023/05/25 10:02:51;;;;;;;3.77;2.57;;;18.20;61.50;19.00;101817.00;;;;5008489;28;20186;-53
2023/05/25 10:05:16;;;;;;;5.07;2.60;;;18.20;61.40;19.00;101808.00;;;;5015882;28;20178;-51
2023/05/25 10:07:44;;;;;;;4.23;2.67;;;18.20;61.30;19.00;101811.00;;;;5007318;28;20602;-53
2023/05/25 10:10:11;;;;;;;4.87;2.70;;;18.20;61.60;19.10;101838.00;;;;5008760;28;20171;-53
2023/05/25 10:12:38;;;;;;;3.13;2.67;;;18.30;61.50;19.10;101818.00;;;;4991737;28;20187;-52
2023/05/25 10:15:05;;;;;;;4.13;2.67;;;18.30;61.40;19.10;101808.00;;;;4990736;28;20230;-52
2023/05/25 10:17:32;;;;;;;3.00;2.70;;;18.20;61.30;19.10;101828.00;;;;4974299;28;20737;-52
2023/05/25 10:19:59;;;;;;;3.30;2.40;;;18.20;61.30;19.10;101824.00;;;;5010372;28;20203;-52
2023/05/25 10:22:29;;;;;;;2.97;2.70;;;18.20;61.20;19.10;101831.00;;;;5011562;28;20285;-51
2023/05/25 10:25:30;;;;;;;5.77;2.97;;;18.30;61.40;19.20;101832.00;;;;4994875;28;20175;-51
2023/05/25 10:27:59;;;;;;;3.13;2.63;;;18.30;61.10;19.10;101833.00;;;;5010516;28;20809;-51
2023/05/25 10:30:26;;;;;;;2.77;2.57;;;18.30;61.10;19.20;101835.00;;;;4994547;28;20280;-52
2023/05/25 10:32:58;;;;;;;4.20;2.57;;;18.30;61.10;19.20;101841.00;;;;5011914;28;20549;-50
2023/05/25 10:35:24;;;;;;;2.97;2.63;;;18.30;61.20;19.20;101837.00;;;;5011929;28;20665;-51
2023/05/25 10:37:53;;;;;;;4.37;2.70;;;18.30;61.10;19.20;101838.00;;;;5011756;28;20199;-51
2023/05/25 10:40:21;;;;;;;3.60;2.97;;;18.30;61.20;19.20;101852.00;;;;5012047;28;20197;-52
2023/05/25 10:42:46;;;;;;;3.23;2.87;;;18.40;61.70;19.20;101833.00;;;;5015174;28;20175;-52
2023/05/25 10:45:12;;;;;;;4.03;2.90;;;18.30;61.20;19.20;101841.00;;;;5011353;28;20171;-52
2023/05/25 10:47:40;;;;;;;4.33;3.07;;;18.40;61.50;19.30;101837.00;;;;5009613;28;20219;-51